Time;durP1;ratioP1;P1;durP2;ratioP2;P2;SDS_P1;SDS_P2;PMS_P1;PMS_P2;Temp;Humidity;BMP_temperature;BMP_pressure;BME280_temperature;BME280_humidity;BME280_pressure;Samples;Min_cycle;Max_cycle;Signal;HPM_P1;HPM_P2
2023/10/20 00:00:06;;;;;;;1.67;1.43;;;;;;;-143.84;73.35;45127.13;5092448;28;20499;-63
2023/10/20 00:02:33;;;;;;;1.20;0.70;;;;;;;-143.84;73.61;45130.94;5091755;28;20488;-63
2023/10/20 00:05:03;;;;;;;1.40;1.07;;;;;;;-143.84;73.62;45104.28;5092717;28;20447;-63
2023/10/20 00:07:30;;;;;;;1.60;1.13;;;;;;;-143.84;73.82;45144.28;5092359;28;20493;-62
2023/10/20 00:09:59;;;;;;;0.97;0.87;;;;;;;-143.84;73.86;45130.94;5092263;28;20439;-63
2023/10/20 00:12:27;;;;;;;0.90;0.80;;;;;;;-143.84;73.62;45127.13;5092429;28;20482;-63
2023/10/20 00:14:54;;;;;;;1.27;1.07;;;;;;;-143.84;73.42;45140.47;5092198;28;20447;-62
2023/10/20 00:20:43;;;;;;;0.97;0.77;;;;;;;-143.84;72.52;45129.03;5092214;28;20427;-63
2023/10/20 00:23:10;;;;;;;1.00;0.80;;;;;;;-143.84;72.29;45117.63;5091932;28;20492;-63
2023/10/20 00:25:39;;;;;;;1.10;0.87;;;;;;;-143.84;72.55;45129.03;5091954;28;20446;-63
2023/10/20 00:28:06;;;;;;;1.00;0.70;;;;;;;-143.84;72.46;45121.44;5092006;28;20497;-63
2023/10/20 00:30:33;;;;;;;0.90;0.57;;;;;;;-143.84;72.53;45144.28;5092145;28;20913;-63
2023/10/20 00:33:01;;;;;;;0.80;0.50;;;;;;;-143.84;72.41;45132.84;5092243;28;20435;-58
2023/10/20 00:35:28;;;;;;;1.57;1.07;;;;;;;-143.84;72.39;45111.91;5091751;28;20805;-58
2023/10/20 00:37:56;;;;;;;1.37;1.27;;;;;;;-143.84;72.64;45108.09;5091987;28;20847;-58
2023/10/20 00:40:23;;;;;;;1.30;0.90;;;;;;;-143.84;72.95;45119.53;5091666;28;20439;-58
2023/10/20 00:42:51;;;;;;;0.80;0.53;;;;;;;-143.84;73.01;45123.34;5092138;28;20505;-58
2023/10/20 00:45:19;;;;;;;8.37;1.00;;;;;;;-143.84;73.18;45130.94;5091780;28;20448;-58
2023/10/20 00:47:47;;;;;;;1.03;0.77;;;;;;;-143.84;73.24;45127.13;5091685;28;20959;-58
2023/10/20 00:50:14;;;;;;;1.70;1.20;;;;;;;-143.84;72.98;45123.34;5091618;28;20446;-60
2023/10/20 00:52:44;;;;;;;1.17;1.07;;;;;;;-143.84;73.07;45125.22;5091838;28;20779;-61
2023/10/20 00:55:12;;;;;;;1.23;0.80;;;;;;;-143.84;73.22;45136.66;5091417;28;20480;-61
2023/10/20 00:57:41;;;;;;;1.03;0.70;;;;;;;-143.84;73.36;45129.03;5091821;28;20456;-61
2023/10/20 01:00:11;;;;;;;1.03;0.60;;;;;;;-143.84;73.42;45113.81;5091545;28;20531;-61
2023/10/20 01:02:38;;;;;;;1.20;0.80;;;;;;;-143.84;73.31;45125.22;5091232;28;20531;-61
2023/10/20 01:05:06;;;;;;;0.90;0.60;;;;;;;-143.84;73.07;45119.53;5091786;28;20439;-61
2023/10/20 01:07:34;;;;;;;0.90;0.80;;;;;;;-143.84;73.21;45132.84;5091503;28;20451;-61
2023/10/20 01:10:04;;;;;;;0.80;0.70;;;;;;;-143.84;73.25;45111.91;5091330;28;20558;-61
2023/10/20 01:12:31;;;;;;;1.33;1.10;;;;;;;-143.84;72.95;45140.47;5091232;28;20943;-61
2023/10/20 01:14:59;;;;;;;0.90;0.60;;;;;;;-143.84;72.68;45146.19;5090182;28;20491;-61
2023/10/20 01:17:29;;;;;;;0.97;0.87;;;;;;;-143.84;72.67;45132.84;5091510;28;20436;-62
2023/10/20 01:19:56;;;;;;;4.87;1.03;;;;;;;-143.84;72.50;45110.00;5091099;28;20961;-62
2023/10/20 01:22:23;;;;;;;1.43;0.97;;;;;;;-143.84;72.68;45102.38;5090847;28;20483;-62
2023/10/20 01:24:52;;;;;;;1.00;0.87;;;;;;;-143.84;72.58;45144.28;5091102;28;20453;-62
2023/10/20 01:27:19;;;;;;;1.43;0.70;;;;;;;-143.84;72.82;45144.28;5091046;28;20513;-62
2023/10/20 01:29:47;;;;;;;1.00;0.90;;;;;;;-143.84;73.02;45125.22;5090928;28;20500;-62
2023/10/20 01:32:14;;;;;;;1.20;0.80;;;;;;;-143.84;72.89;45136.66;5091118;28;20483;-62
2023/10/20 01:34:42;;;;;;;0.93;0.60;;;;;;;-143.84;72.69;45130.94;5090808;28;20436;-62
2023/10/20 01:37:11;;;;;;;1.10;0.80;;;;;;;-143.84;72.70;45153.81;5090862;28;20453;-62
2023/10/20 01:39:38;;;;;;;0.90;0.80;;;;;;;-143.84;72.73;45140.47;5090776;28;20446;-62
2023/10/20 01:42:09;;;;;;;1.97;1.33;;;;;;;-143.84;72.92;45140.47;5090763;28;20440;-62
2023/10/20 01:44:36;;;;;;;0.90;0.70;;;;;;;-143.84;72.83;45151.91;5090809;28;20440;-62
2023/10/20 01:47:04;;;;;;;1.43;0.60;;;;;;;-143.84;72.73;45123.34;5090712;28;20432;-62
2023/10/20 01:49:31;;;;;;;1.77;0.90;;;;;;;-143.84;72.65;45134.75;5090715;28;20472;-62
2023/10/20 01:51:58;;;;;;;1.73;1.33;;;;;;;-143.84;72.53;45140.47;5090282;28;20529;-63
2023/10/20 01:54:25;;;;;;;1.10;0.93;;;;;;;-143.84;72.53;45142.38;5090556;28;20447;-63
2023/10/20 01:56:52;;;;;;;1.40;1.03;;;;;;;-143.84;72.43;45117.63;5090547;28;20506;-63
2023/10/20 01:59:21;;;;;;;1.37;0.77;;;;;;;-143.84;72.43;45106.19;5090546;28;20497;-63
2023/10/20 02:01:48;;;;;;;0.97;0.87;;;;;;;-143.84;72.40;45130.94;5090385;28;20914;-63
2023/10/20 02:04:15;;;;;;;1.67;0.83;;;;;;;-143.84;72.68;45142.38;5090414;28;20466;-63
2023/10/20 02:06:42;;;;;;;1.20;0.80;;;;;;;-143.84;72.75;45108.09;5090342;28;20440;-63
2023/10/20 02:09:09;;;;;;;2.03;1.00;;;;;;;-143.84;72.94;45125.22;5090419;28;20446;-63
2023/10/20 02:11:37;;;;;;;1.30;0.80;;;;;;;-143.84;73.09;45123.34;5090446;28;20479;-63
2023/10/20 02:14:04;;;;;;;1.27;0.90;;;;;;;-143.84;72.97;45146.19;5090450;28;21413;-63
2023/10/20 02:16:33;;;;;;;1.20;0.93;;;;;;;-143.84;73.07;45117.63;5090473;28;20497;-63
2023/10/20 02:19:00;;;;;;;1.27;0.90;;;;;;;-143.84;72.99;45136.66;5090131;28;20443;-63
2023/10/20 02:21:27;;;;;;;1.00;0.87;;;;;;;-143.84;72.79;45132.84;5090123;28;20478;-58
2023/10/20 02:23:54;;;;;;;1.10;0.83;;;;;;;-143.84;72.40;45142.38;5089964;28;20870;-57
2023/10/20 02:26:22;;;;;;;0.90;0.70;;;;;;;-143.84;72.59;45130.94;5089997;28;20483;-58
2023/10/20 02:28:49;;;;;;;2.13;0.93;;;;;;;-143.84;72.65;45129.03;5090051;28;20471;-58
2023/10/20 02:31:18;;;;;;;0.93;0.80;;;;;;;-143.84;72.79;45119.53;5089992;28;20491;-58
2023/10/20 02:33:47;;;;;;;0.97;0.87;;;;;;;-143.84;72.93;45117.63;5089980;28;20438;-58
2023/10/20 02:36:17;;;;;;;3.63;0.80;;;;;;;-143.84;72.85;45117.63;5090039;28;20446;-58
2023/10/20 02:38:45;;;;;;;1.87;1.10;;;;;;;-143.84;72.81;45106.19;5089920;28;20540;-58
2023/10/20 02:41:13;;;;;;;1.53;0.90;;;;;;;-143.84;72.50;45138.56;5089819;28;20433;-58
2023/10/20 02:43:41;;;;;;;0.87;0.57;;;;;;;-143.84;72.19;45115.72;5089792;28;20442;-58
2023/10/20 02:46:08;;;;;;;0.90;0.67;;;;;;;-143.84;71.89;45130.94;5089899;28;20934;-57
2023/10/20 02:48:35;;;;;;;0.97;0.87;;;;;;;-143.84;71.97;45129.03;5089724;28;20449;-58
2023/10/20 02:51:10;;;;;;;0.97;0.87;;;;;;;-143.84;71.76;45125.22;5089737;28;20480;-58
2023/10/20 02:53:39;;;;;;;0.90;0.73;;;;;;;-143.84;71.57;45117.63;5090250;28;20445;-58
2023/10/20 02:56:12;;;;;;;0.90;0.80;;;;;;;-143.84;71.53;45140.47;5089678;28;20507;-58
2023/10/20 02:58:39;;;;;;;0.90;0.60;;;;;;;-143.84;71.97;45138.56;5089929;28;20788;-58
2023/10/20 03:01:07;;;;;;;1.10;0.97;;;;;;;-143.84;72.08;45146.19;5089695;28;20446;-58
2023/10/20 03:03:35;;;;;;;0.90;0.70;;;;;;;-143.84;71.88;45125.22;5089387;28;20437;-58
2023/10/20 03:06:02;;;;;;;1.30;1.00;;;;;;;-143.84;71.79;45125.22;5089163;28;20530;-58
2023/10/20 03:08:32;;;;;;;1.40;1.30;;;;;;;-143.84;72.21;45108.09;5089271;28;20452;-58
2023/10/20 03:10:59;;;;;;;1.27;0.80;;;;;;;-143.84;72.09;45108.09;5089793;28;20516;-58
2023/10/20 03:13:26;;;;;;;1.40;1.30;;;;;;;-143.84;72.17;45119.53;5089776;28;20864;-58
2023/10/20 03:18:29;;;;;;;1.03;0.93;;;;;;;-143.84;72.33;45092.88;5163012;22;20493;-57
2023/10/20 03:21:01;;;;;;;0.90;0.50;;;;;;;-143.84;72.31;45121.44;5008440;28;20463;-57
2023/10/20 03:23:28;;;;;;;1.17;0.93;;;;;;;-143.84;72.46;45134.75;5008702;28;20439;-57
2023/10/20 03:25:57;;;;;;;1.43;1.07;;;;;;;-143.84;72.39;45129.03;5008508;28;20502;-57
2023/10/20 03:28:24;;;;;;;1.10;0.97;;;;;;;-143.84;72.44;45111.91;5008467;28;20465;-57
2023/10/20 03:30:51;;;;;;;2.40;2.07;;;;;;;-143.84;72.61;45115.72;4998154;28;20464;-56
2023/10/20 03:33:18;;;;;;;1.00;0.70;;;;;;;-143.84;72.56;45138.56;4988427;28;20537;-55
2023/10/20 03:35:45;;;;;;;2.27;2.17;;;;;;;-143.84;72.36;45121.44;4988588;28;20447;-55
2023/10/20 03:38:14;;;;;;;1.33;1.23;;;;;;;-143.84;72.39;45130.94;4990801;28;20444;-56
2023/10/20 03:40:41;;;;;;;0.97;0.87;;;;;;;-143.84;72.05;45100.47;4992394;28;20448;-56
2023/10/20 03:43:11;;;;;;;0.90;0.53;;;;;;;-143.84;72.03;45111.91;4992314;28;20573;-56
2023/10/20 03:45:41;;;;;;;1.50;1.40;;;;;;;-143.84;72.22;45113.81;4992192;28;20454;-56
2023/10/20 03:48:09;;;;;;;0.90;0.50;;;;;;;-143.84;72.33;45151.91;4992139;28;20464;-56
2023/10/20 03:50:38;;;;;;;0.80;0.53;;;;;;;-143.84;72.39;45134.75;4992337;28;20514;-56
2023/10/20 03:53:06;;;;;;;0.90;0.50;;;;;;;-143.84;72.02;45117.63;4991680;28;20485;-56
2023/10/20 03:55:34;;;;;;;0.90;0.80;;;;;;;-143.84;72.42;45144.28;4992117;28;20471;-56
2023/10/20 03:58:02;;;;;;;0.90;0.73;;;;;;;-143.84;72.31;45140.47;4992287;28;20443;-56
2023/10/20 04:00:32;;;;;;;2.20;1.50;;;;;;;-143.84;72.22;45108.09;4992037;28;20454;-56
2023/10/20 04:02:59;;;;;;;0.80;0.50;;;;;;;-143.84;72.10;45130.94;4991593;28;20562;-56
2023/10/20 04:05:26;;;;;;;0.80;0.60;;;;;;;-143.84;72.03;45134.75;4991225;28;20955;-56
2023/10/20 04:07:54;;;;;;;0.90;0.70;;;;;;;-143.84;71.88;45121.44;4991058;28;21055;-56
2023/10/20 04:10:21;;;;;;;1.60;0.70;;;;;;;-143.84;71.92;45125.22;4991693;28;20516;-56
2023/10/20 04:12:49;;;;;;;0.90;0.80;;;;;;;-143.84;71.97;45110.00;4990634;28;20549;-56
2023/10/20 04:15:19;;;;;;;1.30;1.20;;;;;;;-143.84;72.12;45117.63;4991089;28;20450;-56
2023/10/20 04:17:51;;;;;;;1.10;0.60;;;;;;;-143.84;72.02;45117.63;4991863;28;20484;-56
2023/10/20 04:20:19;;;;;;;0.90;0.80;;;;;;;-143.84;71.91;45136.66;4993215;28;20458;-56
2023/10/20 04:22:50;;;;;;;1.10;0.70;;;;;;;-143.84;71.66;45136.66;4993143;28;20936;-56
2023/10/20 04:25:18;;;;;;;1.00;0.90;;;;;;;-143.84;71.76;45104.28;4993187;28;20526;-56
2023/10/20 04:27:49;;;;;;;0.90;0.70;;;;;;;-143.84;71.85;45142.38;4993162;28;20446;-56
2023/10/20 04:58:11;;;;;;;1.33;0.60;;;;;;;-143.84;69.84;45113.81;4980967;28;20487;-56
2023/10/20 05:00:41;;;;;;;1.00;0.50;;;;;;;-143.84;69.54;45087.16;4992641;28;20457;-56
2023/10/20 05:03:22;;;;;;;0.90;0.60;;;;;;;-143.84;69.16;45123.34;4992596;28;20462;-56
2023/10/20 05:05:58;;;;;;;1.27;0.90;;;;;;;-143.84;68.80;45102.38;4992557;28;20474;-56
2023/10/20 05:08:25;;;;;;;0.90;0.60;;;;;;;-143.84;68.60;45111.91;4992348;28;20482;-56
2023/10/20 05:10:54;;;;;;;1.00;0.87;;;;;;;-143.84;68.13;45110.00;4992276;28;20502;-56
2023/10/20 05:13:22;;;;;;;0.80;0.50;;;;;;;-143.84;67.95;45108.09;4992410;28;20543;-56
2023/10/20 05:15:50;;;;;;;1.10;0.50;;;;;;;-143.84;68.05;45134.75;4992191;28;20965;-56
2023/10/20 05:18:17;;;;;;;1.57;1.47;;;;;;;-143.84;67.52;45096.66;4991150;28;20831;-56
2023/10/20 05:20:46;;;;;;;0.97;0.83;;;;;;;-143.84;67.44;45104.28;4990733;28;20448;-56
2023/10/20 05:23:15;;;;;;;1.63;1.27;;;;;;;-143.84;67.67;45125.22;4990294;28;20456;-56
2023/10/20 05:25:49;;;;;;;2.37;1.17;;;;;;;-143.84;67.47;45111.91;4990138;28;20462;-56
2023/10/20 05:28:17;;;;;;;1.63;0.70;;;;;;;-143.84;67.46;45125.22;4990386;28;20990;-56
2023/10/20 05:30:45;;;;;;;0.90;0.70;;;;;;;-143.84;67.67;45127.13;4990473;28;20447;-56
2023/10/20 05:33:14;;;;;;;1.67;0.80;;;;;;;-143.84;66.95;45102.38;4990351;28;20479;-56
2023/10/20 05:35:41;;;;;;;3.00;1.30;;;;;;;-143.84;66.73;45098.56;4990295;28;20447;-56
2023/10/20 05:38:08;;;;;;;0.90;0.60;;;;;;;-143.84;66.30;45106.19;4990532;28;20495;-56
2023/10/20 05:40:37;;;;;;;2.60;1.73;;;;;;;-143.84;65.62;45104.28;4990237;28;20435;-56
2023/10/20 05:43:06;;;;;;;0.97;0.83;;;;;;;-143.84;64.75;45089.06;4989939;28;20451;-56
2023/10/20 05:45:39;;;;;;;1.00;0.60;;;;;;;-143.84;64.16;45104.28;4990174;28;20561;-56
2023/10/20 05:48:07;;;;;;;1.10;0.80;;;;;;;-143.84;63.38;45092.88;4990128;28;20502;-56
2023/10/20 05:50:36;;;;;;;0.90;0.73;;;;;;;-143.84;62.60;45117.63;4989927;28;20459;-56
2023/10/20 05:53:04;;;;;;;1.67;1.57;;;;;;;-143.84;62.38;45104.28;4990097;28;20487;-56
2023/10/20 05:55:32;;;;;;;1.43;1.13;;;;;;;-143.84;61.81;45104.28;4992182;28;20444;-56
2023/10/20 05:58:02;;;;;;;1.50;0.70;;;;;;;-143.84;61.21;45077.63;5009344;28;20439;-56
2023/10/20 06:00:29;;;;;;;1.23;1.13;;;;;;;-143.84;60.53;45092.88;5009334;28;20558;-57
2023/10/20 06:02:56;;;;;;;1.13;1.03;;;;;;;-143.84;59.78;45119.53;5009347;28;20443;-58
2023/10/20 06:05:23;;;;;;;0.97;0.80;;;;;;;-143.84;59.05;45092.88;5009043;28;20447;-58
2023/10/20 06:07:50;;;;;;;1.37;1.10;;;;;;;-143.84;58.88;45098.56;5009492;28;20455;-58
2023/10/20 06:10:23;;;;;;;1.30;0.90;;;;;;;-143.84;58.04;45089.06;5009897;28;20440;-56
2023/10/20 06:12:51;;;;;;;2.97;1.23;;;;;;;-143.84;57.61;45090.97;5008799;28;20479;-56
2023/10/20 06:15:20;;;;;;;0.90;0.70;;;;;;;-143.84;57.08;45094.78;5008868;28;20510;-56
2023/10/20 06:17:48;;;;;;;1.00;0.67;;;;;;;-143.84;57.41;45092.88;5008918;28;20996;-56
2023/10/20 06:20:15;;;;;;;0.90;0.60;;;;;;;-143.84;57.02;45087.16;5008975;28;20446;-56
2023/10/20 06:22:44;;;;;;;2.23;1.07;;;;;;;-143.84;56.53;45071.91;5009220;28;20443;-56
2023/10/20 06:25:14;;;;;;;0.90;0.70;;;;;;;-143.84;56.83;45092.88;5009087;28;20439;-56
2023/10/20 06:27:45;;;;;;;1.20;1.10;;;;;;;-143.84;56.79;45075.72;5009048;28;20574;-56
2023/10/20 06:30:19;;;;;;;1.30;1.20;;;;;;;-143.84;55.91;45056.69;5009219;28;20447;-56
2023/10/20 06:32:56;;;;;;;0.90;0.60;;;;;;;-143.84;55.65;45070.00;5008913;28;20489;-56
2023/10/20 06:35:32;;;;;;;1.43;1.03;;;;;;;-143.84;55.46;45075.72;5008896;28;20451;-56
2023/10/20 06:38:11;;;;;;;1.00;0.63;;;;;;;-143.84;55.83;45081.44;5009092;28;20443;-56
2023/10/20 06:40:41;;;;;;;0.90;0.70;;;;;;;-143.84;56.07;45079.53;5008860;28;20454;-56
2023/10/20 06:43:08;;;;;;;1.10;0.97;;;;;;;-143.84;55.38;45079.53;5009029;28;20462;-56
2023/10/20 06:45:35;;;;;;;0.90;0.73;;;;;;;-143.84;55.49;45056.69;5009240;28;20455;-56
2023/10/20 06:48:04;;;;;;;2.10;1.40;;;;;;;-143.84;55.14;45049.06;5008575;28;20449;-56
2023/10/20 06:50:31;;;;;;;0.90;0.77;;;;;;;-143.84;55.60;45090.97;5008854;28;20448;-56
2023/10/20 06:52:59;;;;;;;1.90;1.47;;;;;;;-143.84;56.37;45092.88;5008729;28;20479;-55
2023/10/20 06:55:27;;;;;;;1.30;1.20;;;;;;;-143.84;56.02;45083.34;5008980;28;20451;-56
2023/10/20 06:57:54;;;;;;;1.73;1.53;;;;;;;-143.84;55.85;45068.13;5008919;28;20455;-56
2023/10/20 07:00:21;;;;;;;1.00;0.90;;;;;;;-143.84;55.90;45085.25;5009008;28;20799;-56
2023/10/20 07:02:48;;;;;;;2.27;1.30;;;;;;;-143.84;56.33;45045.25;5008880;28;20439;-56
2023/10/20 07:05:18;;;;;;;1.20;1.10;;;;;;;-143.84;56.36;45077.63;5008882;28;20475;-56
2023/10/20 07:07:45;;;;;;;2.03;1.30;;;;;;;-143.84;55.68;45062.41;5008553;28;20614;-56
2023/10/20 07:10:12;;;;;;;0.80;0.50;;;;;;;-143.84;56.20;45083.34;5008630;28;20900;-56
2023/10/20 07:12:39;;;;;;;1.30;1.13;;;;;;;-143.84;56.17;45085.25;5009885;28;20506;-56
2023/10/20 07:15:07;;;;;;;1.30;1.00;;;;;;;-143.84;55.57;45071.91;5012734;28;20435;-56
2023/10/20 07:17:34;;;;;;;1.30;0.83;;;;;;;-143.84;55.37;45077.63;5012315;28;20649;-56
2023/10/20 07:20:04;;;;;;;1.20;0.90;;;;;;;-143.84;54.77;45092.88;5012413;28;20443;-56
2023/10/20 07:22:33;;;;;;;1.00;0.83;;;;;;;-143.84;54.54;45106.19;5012214;28;20519;-56
2023/10/20 07:25:00;;;;;;;1.10;0.77;;;;;;;-143.84;55.23;45049.06;5012369;28;20513;-56
2023/10/20 07:27:27;;;;;;;0.93;0.73;;;;;;;-143.84;54.74;45087.16;5011944;28;20451;-56
2023/10/20 07:29:55;;;;;;;1.50;1.40;;;;;;;-143.84;53.46;45070.00;5012019;28;20505;-56
2023/10/20 07:32:22;;;;;;;1.10;0.87;;;;;;;-143.84;53.44;45102.38;5012059;28;20544;-56
2023/10/20 07:34:49;;;;;;;1.37;1.00;;;;;;;-143.84;53.71;45094.78;5012072;28;20439;-56
2023/10/20 07:37:16;;;;;;;1.00;0.90;;;;;;;-143.84;53.53;45052.88;5011982;28;20446;-56
2023/10/20 07:39:45;;;;;;;1.07;0.77;;;;;;;-143.84;52.84;45077.63;5011925;28;20529;-56
2023/10/20 07:42:12;;;;;;;1.10;0.90;;;;;;;-143.84;52.30;45085.25;5011812;28;20970;-56
2023/10/20 07:44:40;;;;;;;1.30;1.20;;;;;;;-143.84;51.32;45071.91;5011794;28;20436;-56
2023/10/20 07:47:07;;;;;;;1.20;1.10;;;;;;;-143.84;50.50;45087.16;5011575;28;20957;-56
2023/10/20 07:49:34;;;;;;;1.77;1.50;;;;;;;-143.84;49.61;45064.31;5011773;28;20444;-56
2023/10/20 07:52:01;;;;;;;0.90;0.67;;;;;;;-143.84;49.65;45071.91;5011986;28;20530;-56
2023/10/20 07:54:29;;;;;;;0.90;0.80;;;;;;;-143.84;49.88;45056.69;5011408;28;20565;-56
2023/10/20 07:56:58;;;;;;;1.53;1.13;;;;;;;-143.84;50.32;45049.06;5011574;28;20451;-56
2023/10/20 07:59:25;;;;;;;1.60;1.50;;;;;;;-143.84;50.52;45064.31;5011487;28;20456;-56
2023/10/20 08:01:52;;;;;;;1.00;0.80;;;;;;;-143.84;49.88;45043.34;5011517;28;20853;-56
2023/10/20 08:04:19;;;;;;;1.20;1.00;;;;;;;-143.84;49.32;45073.81;5011650;28;20798;-56
2023/10/20 08:06:47;;;;;;;1.60;1.50;;;;;;;-143.84;49.05;45045.25;5011277;28;20447;-56
2023/10/20 08:09:15;;;;;;;1.03;0.80;;;;;;;-143.84;48.34;45049.06;5011416;28;20525;-56
2023/10/20 08:11:42;;;;;;;1.40;1.10;;;;;;;-143.84;49.02;45043.34;5011075;28;20450;-56
2023/10/20 08:14:11;;;;;;;0.90;0.67;;;;;;;-143.84;47.57;45054.78;5011256;28;20988;-56
2023/10/20 08:16:38;;;;;;;0.90;0.70;;;;;;;-143.84;47.35;45052.88;5010873;28;20459;-57
2023/10/20 08:19:05;;;;;;;1.00;0.77;;;;;;;-143.84;46.73;45062.41;5011574;28;20447;-56
2023/10/20 08:21:32;;;;;;;1.40;1.13;;;;;;;-143.84;46.60;45056.69;5023223;28;20528;-57
2023/10/20 08:23:59;;;;;;;1.00;0.70;;;;;;;-143.84;45.94;45037.66;5030488;28;20458;-56
2023/10/20 08:26:26;;;;;;;2.37;1.30;;;;;;;-143.84;45.58;45037.66;5031088;28;20496;-56
2023/10/20 08:28:53;;;;;;;1.20;1.10;;;;;;;-143.84;45.48;45056.69;5030912;28;20536;-56
2023/10/20 08:31:22;;;;;;;1.43;1.03;;;;;;;-143.84;45.80;45050.97;5031159;28;20508;-56
2023/10/20 08:33:51;;;;;;;1.57;1.00;;;;;;;-143.84;44.90;45028.13;5029472;28;21083;-56
2023/10/20 08:36:21;;;;;;;1.73;1.30;;;;;;;-143.84;45.12;45035.75;5010716;28;20839;-56
2023/10/20 08:38:50;;;;;;;1.07;0.63;;;;;;;-143.84;45.13;45045.25;5010045;28;20953;-56
2023/10/20 08:41:18;;;;;;;1.00;0.70;;;;;;;-143.84;45.16;45064.31;5010734;28;20542;-56
2023/10/20 08:43:47;;;;;;;2.93;1.03;;;;;;;-143.84;44.37;45031.94;5010228;28;20505;-56
2023/10/20 08:46:16;;;;;;;0.90;0.70;;;;;;;-143.84;44.89;45073.81;5009599;28;20439;-56
2023/10/20 08:48:45;;;;;;;1.73;1.00;;;;;;;-143.84;44.13;45010.97;5010449;28;20792;-58
2023/10/20 08:51:14;;;;;;;1.20;0.87;;;;;;;-143.84;43.50;45035.75;5010604;28;20451;-58
2023/10/20 08:53:42;;;;;;;4.13;1.30;;;;;;;-143.84;43.30;45024.31;5010274;28;20478;-58
2023/10/20 08:56:11;;;;;;;1.40;1.30;;;;;;;-143.84;43.09;45030.03;5010422;28;20945;-58
2023/10/20 08:58:39;;;;;;;2.30;1.13;;;;;;;-143.84;43.05;45033.84;5010619;28;20451;-58
2023/10/20 09:01:07;;;;;;;1.23;0.60;;;;;;;-143.84;43.37;45047.16;5010540;28;20436;-58
2023/10/20 09:03:41;;;;;;;1.00;0.90;;;;;;;-143.84;42.57;45026.22;5010389;28;20497;-58
2023/10/20 09:06:12;;;;;;;1.10;0.90;;;;;;;-143.84;42.50;45024.31;5010362;28;20442;-58
2023/10/20 09:08:39;;;;;;;1.17;1.07;;;;;;;-143.84;41.68;45047.16;5029685;28;20530;-58
2023/10/20 09:11:10;;;;;;;1.00;0.70;;;;;;;-143.84;41.38;45033.84;5030414;28;20449;-58
2023/10/20 09:13:40;;;;;;;2.60;1.47;;;;;;;-143.84;40.94;45031.94;5029846;28;20495;-59
2023/10/20 09:16:08;;;;;;;1.20;0.70;;;;;;;-143.84;41.08;45024.31;5030077;28;20450;-56
2023/10/20 09:18:43;;;;;;;1.00;0.70;;;;;;;-143.84;40.53;45039.53;5029798;28;20502;-56
2023/10/20 09:21:13;;;;;;;1.20;1.10;;;;;;;-143.84;41.11;45030.03;5029766;28;20445;-56
2023/10/20 09:23:40;;;;;;;0.90;0.60;;;;;;;-143.84;40.99;45024.31;5008727;28;20466;-55
2023/10/20 09:26:08;;;;;;;0.90;0.60;;;;;;;-143.84;40.29;45030.03;5010108;28;20463;-55
2023/10/20 09:28:36;;;;;;;0.90;0.63;;;;;;;-143.84;40.23;45018.59;5009814;28;20448;-55
2023/10/20 09:31:04;;;;;;;1.00;0.83;;;;;;;-143.84;40.26;45003.38;5009794;28;20510;-56
2023/10/20 09:33:32;;;;;;;1.40;1.00;;;;;;;-143.84;40.12;45018.59;5009619;28;20533;-56
2023/10/20 09:36:00;;;;;;;1.10;0.87;;;;;;;-143.84;40.11;45020.50;5009074;28;20451;-56
2023/10/20 09:38:31;;;;;;;1.00;0.70;;;;;;;-143.84;39.02;44991.94;5009481;28;20954;-56
2023/10/20 09:41:11;;;;;;;1.13;1.03;;;;;;;-143.84;39.31;44995.75;5009893;28;20502;-56
2023/10/20 09:43:42;;;;;;;1.17;0.77;;;;;;;-143.84;40.20;44997.66;5009611;28;20533;-55
2023/10/20 09:46:21;;;;;;;1.10;0.90;;;;;;;-143.84;39.99;45018.59;5009919;28;21050;-56
2023/10/20 09:48:53;;;;;;;0.90;0.60;;;;;;;-143.84;38.75;45003.38;5009797;28;20449;-56
2023/10/20 09:51:21;;;;;;;0.90;0.60;;;;;;;-143.84;38.94;45007.19;5009296;28;20468;-56
2023/10/20 09:53:50;;;;;;;1.10;1.00;;;;;;;-143.84;38.61;44982.41;5009360;28;20497;-56
2023/10/20 09:56:19;;;;;;;1.20;0.87;;;;;;;-143.84;39.51;45020.50;5009424;28;20455;-56
2023/10/20 09:58:46;;;;;;;1.07;0.70;;;;;;;-143.84;37.66;44995.75;5009330;28;20435;-56
2023/10/20 10:01:14;;;;;;;1.00;0.90;;;;;;;-143.84;38.89;44961.47;5009629;28;20443;-56
2023/10/20 10:03:42;;;;;;;1.03;0.90;;;;;;;-143.84;39.52;44984.31;5009208;28;20940;-56
2023/10/20 10:06:10;;;;;;;3.10;0.67;;;;;;;-143.84;39.43;44980.53;5009275;28;20447;-56
2023/10/20 10:08:39;;;;;;;2.83;1.33;;;;;;;-143.84;37.47;44993.84;5009123;28;20450;-56
2023/10/20 10:11:21;;;;;;;1.00;0.90;;;;;;;-143.84;38.45;44976.72;5009307;28;20438;-56
2023/10/20 10:13:54;;;;;;;0.90;0.70;;;;;;;-143.84;38.39;44957.66;5025116;28;21073;-56
2023/10/20 10:16:22;;;;;;;1.00;0.83;;;;;;;-143.84;38.46;44976.72;5029261;28;20464;-58
2023/10/20 10:18:51;;;;;;;2.43;1.37;;;;;;;-143.84;38.19;45001.47;5028652;28;20540;-58
2023/10/20 10:21:29;;;;;;;1.30;1.10;;;;;;;-143.84;38.55;44971.00;5028710;28;20442;-59
2023/10/20 10:24:18;;;;;;;1.30;1.10;;;;;;;-143.84;38.54;44991.94;5028791;28;21202;-58
2023/10/20 10:26:50;;;;;;;1.00;0.70;;;;;;;-143.84;39.28;44980.53;5028731;28;20940;-58
2023/10/20 10:29:17;;;;;;;0.90;0.50;;;;;;;-143.84;39.40;44961.47;5028824;28;20434;-59
2023/10/20 10:31:45;;;;;;;1.00;0.73;;;;;;;-143.84;39.44;44978.63;5028808;28;20641;-58
2023/10/20 10:34:12;;;;;;;1.10;0.70;;;;;;;-143.84;38.94;44974.81;5028583;28;20482;-58
2023/10/20 10:36:47;;;;;;;0.80;0.50;;;;;;;-143.84;37.04;44976.72;5028238;28;20443;-58
2023/10/20 10:39:27;;;;;;;0.93;0.53;;;;;;;-143.84;36.87;44946.25;5028506;28;20889;-58
2023/10/20 10:42:01;;;;;;;0.97;0.87;;;;;;;-143.84;36.66;44953.88;5028434;28;21198;-58
2023/10/20 10:44:34;;;;;;;0.90;0.70;;;;;;;-143.84;36.28;44988.13;5027948;28;20488;-58
2023/10/20 10:47:01;;;;;;;1.00;0.87;;;;;;;-143.84;37.42;44969.09;5030291;28;20449;-58
2023/10/20 10:49:28;;;;;;;1.53;0.90;;;;;;;-143.84;36.33;44953.88;5032348;28;20473;-58
2023/10/20 10:51:57;;;;;;;1.00;0.90;;;;;;;-143.84;36.53;44953.88;5032379;28;20500;-58
2023/10/20 10:54:26;;;;;;;1.30;1.20;;;;;;;-143.84;36.77;44965.28;5032609;28;20840;-58
2023/10/20 10:56:55;;;;;;;1.10;0.80;;;;;;;-143.84;37.19;44978.63;5032495;28;20939;-58
2023/10/20 10:59:23;;;;;;;1.47;0.90;;;;;;;-143.84;37.81;44978.63;5032751;28;20451;-58
2023/10/20 11:01:51;;;;;;;0.90;0.60;;;;;;;-143.84;37.70;44950.06;5032632;28;20473;-58
2023/10/20 11:04:18;;;;;;;1.03;0.90;;;;;;;-143.84;37.01;44950.06;5032385;28;20446;-58
2023/10/20 11:06:46;;;;;;;1.10;0.70;;;;;;;-143.84;37.17;44965.28;5032418;28;21334;-59
2023/10/20 11:09:18;;;;;;;1.40;1.30;;;;;;;-143.84;36.50;44980.53;5032292;28;20438;-58
2023/10/20 11:11:47;;;;;;;0.90;0.60;;;;;;;-143.84;36.95;44980.53;5032181;28;20448;-58
2023/10/20 11:14:18;;;;;;;1.20;1.07;;;;;;;-143.84;36.58;44965.28;5032388;28;20514;-58
2023/10/20 11:16:47;;;;;;;0.90;0.60;;;;;;;-143.84;37.07;44955.75;5032075;28;20462;-58
2023/10/20 11:19:15;;;;;;;1.00;0.70;;;;;;;-143.84;37.42;44974.81;5031966;28;20450;-58
2023/10/20 11:21:51;;;;;;;2.40;1.20;;;;;;;-143.84;38.05;44959.56;5031778;28;20776;-58
2023/10/20 11:24:26;;;;;;;1.27;1.17;;;;;;;-143.84;38.20;44997.66;5031807;28;21059;-58
2023/10/20 11:27:00;;;;;;;0.90;0.63;;;;;;;-143.84;38.01;44995.75;5032075;28;20433;-58
2023/10/20 11:29:30;;;;;;;1.10;1.00;;;;;;;-143.84;37.63;44976.72;5032000;28;20440;-58
2023/10/20 11:31:59;;;;;;;2.13;1.17;;;;;;;-143.84;39.04;44976.72;5031812;28;20454;-58
2023/10/20 11:34:27;;;;;;;1.93;1.83;;;;;;;-143.84;39.00;45003.38;5031581;28;21066;-58
2023/10/20 11:36:54;;;;;;;1.00;0.80;;;;;;;-143.84;39.08;44969.09;5031629;28;20966;-58
2023/10/20 11:39:24;;;;;;;1.50;1.10;;;;;;;-143.84;37.98;44971.00;5031563;28;20443;-58
2023/10/20 11:41:53;;;;;;;0.90;0.57;;;;;;;-143.84;36.44;44976.72;5031584;28;20529;-58
2023/10/20 11:44:20;;;;;;;1.03;0.90;;;;;;;-143.84;36.84;44955.75;5031719;28;20463;-58
2023/10/20 11:46:49;;;;;;;1.00;0.40;;;;;;;-143.84;37.75;44953.88;5031404;28;20442;-58
2023/10/20 11:49:16;;;;;;;1.23;0.70;;;;;;;-143.84;37.12;44982.41;5031733;28;20486;-58
2023/10/20 11:51:43;;;;;;;1.20;0.80;;;;;;;-143.84;37.50;44961.47;5031266;28;20442;-58
2023/10/20 11:54:10;;;;;;;0.93;0.60;;;;;;;-143.84;37.81;44995.75;5031308;28;20493;-58
2023/10/20 11:56:38;;;;;;;1.00;0.90;;;;;;;-143.84;36.22;44971.00;5031314;28;21265;-58